Time;durP1;ratioP1;P1;durP2;ratioP2;P2;SDS_P1;SDS_P2;PMS_P1;PMS_P2;Temp;Humidity;BMP_temperature;BMP_pressure;BME280_temperature;BME280_humidity;BME280_pressure;Samples;Min_cycle;Max_cycle;Signal;HPM_P1;HPM_P2
2021/12/14 00:01:35;;;;;;;5.25;2.92;;;21.10;60.90;;;;;;4984870;28;20212;-39
2021/12/14 00:04:09;;;;;;;4.88;3.33;;;21.10;60.90;;;;;;4984164;28;20244;-51
2021/12/14 00:06:41;;;;;;;4.65;3.15;;;21.10;60.80;;;;;;4989560;28;20348;-47
2021/12/14 00:09:22;;;;;;;5.38;2.72;;;21.10;60.80;;;;;;4985492;28;20296;-40
2021/12/14 00:12:10;;;;;;;4.03;2.58;;;21.10;60.80;;;;;;4984841;28;20197;-41
2021/12/14 00:17:35;;;;;;;3.92;2.60;;;21.10;60.70;;;;;;4984023;28;20616;-40
2021/12/14 00:20:19;;;;;;;5.05;3.00;;;21.10;60.70;;;;;;4983366;28;20206;-47
2021/12/14 00:25:38;;;;;;;3.40;2.60;;;21.10;60.80;;;;;;4944727;28;20227;-39
2021/12/14 00:28:16;;;;;;;2.90;2.42;;;21.10;60.80;;;;;;4983351;28;20752;-40
2021/12/14 00:30:48;;;;;;;2.88;2.45;;;21.10;60.70;;;;;;4982990;28;20205;-40
2021/12/14 00:33:21;;;;;;;2.33;2.13;;;21.20;60.70;;;;;;4984539;28;20303;-42
2021/12/14 00:35:51;;;;;;;3.58;2.33;;;21.10;60.60;;;;;;4984326;28;20301;-47
2021/12/14 00:38:24;;;;;;;3.90;2.08;;;21.20;60.70;;;;;;4982541;28;20340;-40
2021/12/14 00:40:56;;;;;;;2.58;1.80;;;21.20;60.70;;;;;;4981436;28;20288;-42
2021/12/14 00:43:29;;;;;;;2.95;1.60;;;21.20;60.60;;;;;;4983261;28;20294;-40
2021/12/14 00:46:00;;;;;;;4.05;1.42;;;21.10;60.40;;;;;;4985157;28;20288;-39
2021/12/14 00:48:30;;;;;;;2.22;1.20;;;21.20;60.50;;;;;;4984122;28;20312;-55
2021/12/14 00:51:02;;;;;;;2.60;1.42;;;21.20;60.60;;;;;;4987879;28;20244;-40
2021/12/14 00:53:33;;;;;;;2.40;1.15;;;21.20;60.50;;;;;;4982423;28;20221;-41
2021/12/14 00:56:06;;;;;;;3.30;1.38;;;21.20;60.50;;;;;;4985403;28;20312;-52
2021/12/14 00:58:39;;;;;;;2.45;1.40;;;21.20;60.40;;;;;;4983039;28;20313;-39
2021/12/14 01:01:12;;;;;;;3.92;1.20;;;21.20;60.40;;;;;;4982322;28;20284;-40
2021/12/14 01:03:46;;;;;;;4.38;1.38;;;21.20;60.40;;;;;;4983034;28;20277;-46
2021/12/14 01:06:18;;;;;;;1.73;1.10;;;21.20;60.40;;;;;;4986352;28;20612;-39
2021/12/14 01:08:51;;;;;;;5.72;1.90;;;21.20;60.30;;;;;;4983019;28;20237;-39
2021/12/14 01:11:28;;;;;;;5.20;1.60;;;21.20;60.40;;;;;;4982740;28;20288;-39
2021/12/14 01:14:06;;;;;;;3.10;1.20;;;21.20;60.30;;;;;;4983341;28;20225;-43
2021/12/14 01:16:49;;;;;;;3.30;1.20;;;21.20;60.30;;;;;;4985526;28;20675;-43
2021/12/14 01:19:25;;;;;;;2.88;1.10;;;21.20;60.30;;;;;;4983751;28;20316;-40
2021/12/14 01:25:02;;;;;;;3.42;1.27;;;21.20;60.30;;;;;;4983019;28;20202;-39
2021/12/14 01:27:40;;;;;;;2.28;1.30;;;21.30;60.20;;;;;;4984453;28;20278;-39
2021/12/14 01:30:21;;;;;;;3.47;1.40;;;21.30;60.20;;;;;;4982672;28;20233;-40
2021/12/14 01:32:52;;;;;;;2.85;1.15;;;21.20;60.10;;;;;;4983755;28;20228;-40
2021/12/14 01:35:28;;;;;;;1.90;0.82;;;21.30;60.10;;;;;;4982869;28;20280;-40
2021/12/14 01:38:15;;;;;;;1.95;0.98;;;21.30;60.00;;;;;;4987688;28;20213;-41
2021/12/14 01:40:58;;;;;;;1.67;0.88;;;21.30;60.00;;;;;;4987818;28;20210;-52
2021/12/14 01:43:33;;;;;;;1.58;1.02;;;21.20;59.90;;;;;;4984731;28;20284;-47
2021/12/14 01:46:13;;;;;;;2.13;0.80;;;21.30;59.90;;;;;;4983481;28;20240;-39
2021/12/14 01:48:44;;;;;;;2.33;0.95;;;21.30;59.90;;;;;;4982996;28;20308;-39
2021/12/14 01:51:15;;;;;;;1.50;0.80;;;21.30;60.00;;;;;;4978026;28;20280;-49
2021/12/14 01:53:50;;;;;;;2.50;1.08;;;21.30;59.90;;;;;;4989772;28;20308;-40
2021/12/14 01:56:25;;;;;;;3.05;1.00;;;21.30;59.90;;;;;;4987180;28;20320;-46
2021/12/14 01:58:59;;;;;;;2.03;1.17;;;21.30;59.90;;;;;;4986160;28;20765;-41
2021/12/14 02:01:43;;;;;;;1.75;0.82;;;21.30;59.90;;;;;;4986389;28;20289;-40
2021/12/14 02:04:17;;;;;;;3.15;1.10;;;21.30;59.80;;;;;;4986025;28;20198;-45
2021/12/14 02:06:54;;;;;;;2.25;1.02;;;21.30;59.80;;;;;;4988488;28;20607;-39
2021/12/14 02:09:26;;;;;;;3.10;1.33;;;21.30;59.80;;;;;;4984778;28;20248;-42
2021/12/14 02:11:59;;;;;;;2.58;0.82;;;21.30;59.80;;;;;;4988547;28;20292;-39
2021/12/14 02:14:33;;;;;;;3.75;1.27;;;21.30;59.70;;;;;;4986407;28;20308;-40
2021/12/14 02:17:10;;;;;;;2.00;1.00;;;21.30;59.70;;;;;;4987791;28;20276;-42
2021/12/14 02:19:41;;;;;;;1.75;0.90;;;21.30;59.60;;;;;;4984390;28;20238;-40
2021/12/14 02:22:15;;;;;;;1.83;0.90;;;21.30;59.60;;;;;;4985143;28;20209;-43
2021/12/14 02:24:52;;;;;;;3.38;1.25;;;21.30;60.20;;;;;;4991664;28;20289;-43
2021/12/14 02:27:23;;;;;;;3.72;1.10;;;21.30;59.60;;;;;;4987914;28;20256;-39
2021/12/14 02:29:54;;;;;;;2.33;1.00;;;21.30;59.50;;;;;;4984426;28;20284;-39
2021/12/14 02:32:28;;;;;;;4.03;1.35;;;21.30;59.50;;;;;;4993211;28;20733;-39
2021/12/14 02:35:02;;;;;;;1.38;0.90;;;21.30;60.20;;;;;;4992920;28;20316;-40
2021/12/14 02:37:44;;;;;;;3.80;1.20;;;21.30;59.50;;;;;;4988277;28;20222;-39
2021/12/14 02:40:30;;;;;;;3.75;1.10;;;21.30;59.50;;;;;;4985155;28;20626;-40
2021/12/14 02:43:03;;;;;;;2.97;1.08;;;21.30;59.50;;;;;;4986048;28;20255;-40
2021/12/14 02:45:33;;;;;;;2.08;1.10;;;21.30;59.50;;;;;;4985848;28;20284;-40
2021/12/14 02:48:10;;;;;;;1.77;0.70;;;21.30;59.50;;;;;;4987072;28;20308;-46
2021/12/14 02:50:41;;;;;;;2.10;1.00;;;21.30;59.50;;;;;;4986698;28;20264;-39
2021/12/14 02:53:14;;;;;;;3.53;1.40;;;21.30;59.50;;;;;;4984110;28;20963;-39
2021/12/14 02:55:45;;;;;;;3.70;1.17;;;21.30;59.50;;;;;;4982374;28;20328;-44
2021/12/14 02:58:15;;;;;;;1.90;0.93;;;21.30;59.50;;;;;;4984545;28;20305;-45
2021/12/14 03:00:49;;;;;;;3.08;1.20;;;21.40;59.80;;;;;;4986796;28;20277;-48
2021/12/14 03:03:21;;;;;;;2.78;0.90;;;21.40;60.20;;;;;;4985311;28;20277;-46
2021/12/14 03:05:52;;;;;;;4.32;1.52;;;21.40;60.70;;;;;;4984901;28;20296;-46
2021/12/14 03:08:27;;;;;;;3.75;1.40;;;21.40;59.70;;;;;;4985729;28;20301;-39
2021/12/14 03:11:10;;;;;;;2.92;1.20;;;21.40;59.70;;;;;;4985722;28;20292;-42
2021/12/14 03:13:43;;;;;;;3.20;1.10;;;21.40;60.30;;;;;;4984520;28;20255;-40
2021/12/14 03:16:18;;;;;;;2.17;0.80;;;21.40;59.50;;;;;;4985737;28;20210;-39
2021/12/14 03:18:53;;;;;;;2.05;1.02;;;21.40;59.40;;;;;;4983830;28;20301;-41
2021/12/14 03:21:26;;;;;;;4.13;1.67;;;21.40;59.40;;;;;;4986097;28;20320;-57
2021/12/14 03:24:02;;;;;;;2.67;1.17;;;21.40;59.40;;;;;;4984972;28;20280;-46
2021/12/14 03:26:35;;;;;;;1.60;0.90;;;21.40;59.40;;;;;;4984042;28;20278;-39
2021/12/14 03:29:09;;;;;;;3.88;1.00;;;21.40;59.40;;;;;;4985097;28;20308;-56
2021/12/14 03:31:42;;;;;;;4.57;1.00;;;21.40;59.40;;;;;;4989558;28;20335;-40
2021/12/14 03:34:14;;;;;;;4.05;1.15;;;21.40;59.40;;;;;;4987077;28;20304;-41
2021/12/14 03:36:52;;;;;;;4.18;1.30;;;21.40;59.40;;;;;;4993760;28;20300;-42
2021/12/14 03:39:27;;;;;;;2.72;1.20;;;21.30;59.30;;;;;;4985193;28;20795;-40
2021/12/14 03:42:01;;;;;;;3.03;1.05;;;21.30;59.30;;;;;;4985743;28;20236;-45
2021/12/14 03:44:34;;;;;;;5.38;1.00;;;21.30;59.30;;;;;;4987112;28;20286;-44
2021/12/14 03:47:09;;;;;;;2.45;1.10;;;21.30;59.30;;;;;;4984042;28;20273;-40
2021/12/14 03:49:43;;;;;;;4.57;1.60;;;21.30;59.30;;;;;;4984373;28;20422;-40
2021/12/14 03:52:16;;;;;;;4.32;1.40;;;21.40;59.40;;;;;;4985271;28;20707;-40
2021/12/14 03:54:48;;;;;;;2.50;1.10;;;21.30;59.30;;;;;;4985636;28;20304;-39
2021/12/14 03:57:19;;;;;;;2.78;0.85;;;21.30;60.00;;;;;;4984009;28;20273;-39
2021/12/14 03:59:50;;;;;;;3.42;1.08;;;21.30;59.40;;;;;;4985325;28;20700;-47
2021/12/14 04:02:21;;;;;;;4.07;1.13;;;21.30;59.50;;;;;;4985410;28;20627;-40
2021/12/14 04:05:01;;;;;;;4.07;1.50;;;21.30;59.50;;;;;;4985802;28;20277;-40
2021/12/14 04:07:32;;;;;;;2.00;1.17;;;21.30;59.50;;;;;;4984996;28;20213;-39
2021/12/14 04:10:05;;;;;;;2.38;1.00;;;21.30;59.60;;;;;;4982810;28;20198;-44
2021/12/14 04:12:37;;;;;;;3.03;1.38;;;21.30;59.70;;;;;;4984463;28;20281;-39
2021/12/14 04:15:09;;;;;;;2.10;0.80;;;21.30;59.70;;;;;;4985059;28;20313;-40
2021/12/14 04:17:40;;;;;;;3.60;1.40;;;21.30;59.70;;;;;;4984923;28;20296;-40
2021/12/14 04:20:17;;;;;;;2.72;1.20;;;21.30;59.70;;;;;;4982724;28;20289;-39
2021/12/14 04:22:48;;;;;;;3.25;1.10;;;21.30;59.70;;;;;;4988332;28;20220;-40
2021/12/14 04:25:24;;;;;;;3.40;1.40;;;21.30;59.60;;;;;;4984966;28;20284;-47
2021/12/14 04:27:56;;;;;;;2.30;1.00;;;21.30;59.60;;;;;;4985973;28;20308;-40
2021/12/14 04:30:27;;;;;;;3.03;1.17;;;21.20;59.60;;;;;;4986454;28;20197;-40
2021/12/14 04:33:02;;;;;;;2.75;1.15;;;21.30;59.60;;;;;;4982853;28;20194;-39
2021/12/14 04:35:34;;;;;;;3.00;1.20;;;21.30;59.60;;;;;;4984687;28;20307;-40
2021/12/14 04:38:11;;;;;;;4.40;1.38;;;21.20;59.60;;;;;;4986685;28;20223;-40
2021/12/14 04:52:00;;;;;;;3.33;1.40;;;21.20;59.80;;;;;;5067965;28;20599;-48
2021/12/14 04:54:33;;;;;;;2.95;1.20;;;21.20;59.80;;;;;;5066308;28;20211;-48
2021/12/14 04:57:06;;;;;;;2.60;0.90;;;21.20;59.80;;;;;;5065962;28;20282;-51
2021/12/14 04:59:37;;;;;;;3.17;1.35;;;21.20;60.40;;;;;;5045406;28;20283;-47
2021/12/14 05:02:13;;;;;;;4.35;1.58;;;21.20;59.90;;;;;;5045812;28;20290;-47
2021/12/14 05:04:43;;;;;;;4.07;1.30;;;21.20;59.90;;;;;;5045637;28;20262;-47
2021/12/14 05:07:34;;;;;;;3.50;1.20;;;21.20;59.80;;;;;;5047034;28;20287;-51
2021/12/14 05:10:07;;;;;;;3.45;1.00;;;21.20;59.80;;;;;;5046843;28;20628;-50
2021/12/14 05:12:40;;;;;;;3.65;1.17;;;21.20;59.80;;;;;;5045571;28;20192;-48
2021/12/14 05:15:13;;;;;;;3.58;1.00;;;21.20;59.80;;;;;;5047211;28;20321;-52
2021/12/14 05:17:46;;;;;;;4.60;1.40;;;21.20;59.70;;;;;;5046472;28;20259;-57
2021/12/14 05:20:18;;;;;;;3.15;1.10;;;21.20;59.70;;;;;;5045904;28;20311;-54
2021/12/14 05:22:49;;;;;;;2.08;0.90;;;21.20;59.70;;;;;;5047187;28;20283;-56
2021/12/14 05:25:25;;;;;;;2.80;1.08;;;21.20;59.70;;;;;;5048107;28;20284;-53
2021/12/14 05:28:01;;;;;;;2.75;1.40;;;21.20;59.70;;;;;;5045372;28;20741;-54
2021/12/14 05:30:40;;;;;;;6.18;1.88;;;21.20;59.80;;;;;;5048064;28;20195;-55
2021/12/14 05:33:13;;;;;;;3.00;1.33;;;21.20;59.70;;;;;;5042509;28;20714;-58
2021/12/14 05:35:45;;;;;;;3.67;1.33;;;21.20;59.80;;;;;;5048808;28;20306;-54
2021/12/14 05:38:20;;;;;;;3.35;1.40;;;21.20;59.70;;;;;;5046922;28;20226;-55
2021/12/14 05:41:09;;;;;;;2.97;1.10;;;21.20;59.70;;;;;;5047885;28;20682;-51
2021/12/14 05:43:40;;;;;;;5.38;1.50;;;21.20;59.70;;;;;;5045672;28;20274;-51
2021/12/14 05:46:11;;;;;;;2.08;1.23;;;21.20;59.80;;;;;;5046481;28;20234;-51
2021/12/14 05:48:42;;;;;;;5.10;1.45;;;21.20;59.80;;;;;;5059445;22;20223;-54
2021/12/14 05:51:13;;;;;;;2.78;1.30;;;21.10;59.80;;;;;;5047183;28;20274;-55
2021/12/14 05:53:45;;;;;;;2.08;1.40;;;21.10;59.90;;;;;;5047318;28;20290;-53
2021/12/14 05:56:19;;;;;;;2.75;1.45;;;21.10;60.10;;;;;;5046592;28;20659;-54
2021/12/14 05:58:52;;;;;;;3.20;1.50;;;21.10;60.20;;;;;;5045530;28;20313;-53
2021/12/14 06:01:26;;;;;;;5.93;1.30;;;21.10;60.20;;;;;;5046257;28;20293;-52
2021/12/14 06:03:59;;;;;;;5.50;1.73;;;21.20;60.20;;;;;;5044095;28;20282;-51
2021/12/14 06:06:32;;;;;;;4.32;2.33;;;21.20;60.30;;;;;;5045219;28;20273;-48
2021/12/14 06:09:09;;;;;;;5.35;2.05;;;21.20;60.40;;;;;;5042321;28;20314;-51
2021/12/14 06:11:41;;;;;;;11.43;5.90;;;21.20;61.10;;;;;;5046463;28;20207;-49
2021/12/14 06:14:18;;;;;;;16.25;9.07;;;21.20;60.10;;;;;;5045255;28;20370;-50
2021/12/14 06:16:50;;;;;;;14.43;8.00;;;21.20;60.20;;;;;;5045700;28;20286;-51
2021/12/14 06:19:23;;;;;;;8.10;4.10;;;21.20;60.20;;;;;;5046211;28;20222;-52
2021/12/14 06:21:56;;;;;;;10.95;5.25;;;21.20;60.20;;;;;;5047032;28;20287;-50
2021/12/14 06:24:28;;;;;;;8.27;4.65;;;21.20;60.10;;;;;;5047695;28;20773;-50
2021/12/14 06:27:00;;;;;;;7.03;4.20;;;21.20;60.10;;;;;;5047783;28;20196;-51
2021/12/14 06:29:40;;;;;;;6.03;4.15;;;21.10;60.10;;;;;;5046979;28;20286;-49
2021/12/14 06:32:13;;;;;;;8.57;4.47;;;21.20;60.10;;;;;;5047508;28;20279;-49
2021/12/14 06:34:46;;;;;;;9.93;4.57;;;21.10;60.00;;;;;;5046419;28;20278;-48
2021/12/14 06:37:55;;;;;;;9.18;3.95;;;21.10;60.00;;;;;;5047336;28;20286;-50
2021/12/14 06:40:28;;;;;;;6.95;4.07;;;21.10;60.00;;;;;;5049942;28;20199;-50
2021/12/14 06:43:03;;;;;;;5.90;3.72;;;21.10;59.90;;;;;;5050683;28;20190;-50
2021/12/14 06:45:37;;;;;;;8.55;4.25;;;21.10;59.90;;;;;;5048566;28;20341;-54
2021/12/14 06:48:11;;;;;;;6.90;3.28;;;21.10;59.90;;;;;;5050483;28;20377;-50
2021/12/14 06:50:45;;;;;;;7.60;3.90;;;21.10;59.90;;;;;;5050174;28;20278;-52
2021/12/14 06:53:19;;;;;;;6.65;3.40;;;21.10;59.90;;;;;;5049712;28;20286;-49
2021/12/14 06:55:53;;;;;;;4.22;2.92;;;21.10;59.90;;;;;;5048590;28;20745;-49
2021/12/14 06:58:26;;;;;;;5.20;3.65;;;21.10;59.90;;;;;;5050186;28;20257;-54
2021/12/14 07:01:06;;;;;;;5.20;3.83;;;21.10;59.90;;;;;;5049336;28;20286;-51
2021/12/14 07:03:46;;;;;;;6.82;3.33;;;21.10;59.90;;;;;;5048588;28;20286;-51
2021/12/14 07:06:26;;;;;;;7.63;2.88;;;21.10;59.90;;;;;;5048244;28;20203;-51
2021/12/14 07:08:58;;;;;;;6.57;3.70;;;21.10;59.80;;;;;;5049960;28;20246;-51
2021/12/14 07:11:29;;;;;;;20.75;10.93;;;21.10;59.80;;;;;;5045806;28;20278;-51
2021/12/14 07:14:02;;;;;;;27.80;16.50;;;21.10;59.90;;;;;;5049648;28;20699;-51
2021/12/14 07:16:39;;;;;;;13.05;7.18;;;21.10;60.10;;;;;;5048844;28;20721;-49
2021/12/14 07:19:10;;;;;;;26.92;15.02;;;21.10;60.10;;;;;;5049339;28;20222;-51
2021/12/14 07:21:47;;;;;;;19.70;11.13;;;21.10;60.20;;;;;;5049593;28;20606;-48
2021/12/14 07:24:39;;;;;;;11.10;8.05;;;21.10;60.10;;;;;;5049323;28;20209;-48
2021/12/14 07:27:20;;;;;;;15.60;10.52;;;21.10;60.10;;;;;;5050085;28;20636;-50
2021/12/14 07:29:52;;;;;;;16.67;10.10;;;21.10;60.10;;;;;;5048558;28;20283;-50
2021/12/14 07:35:41;;;;;;;18.17;8.55;;;21.10;60.00;;;;;;5103973;27;20540;-51
2021/12/14 07:38:29;;;;;;;12.40;7.88;;;21.10;60.00;;;;;;5103840;28;20775;-49
2021/12/14 07:41:05;;;;;;;11.38;7.40;;;21.10;60.00;;;;;;5097606;28;20208;-49
2021/12/14 07:43:38;;;;;;;15.07;8.40;;;21.10;60.00;;;;;;5102157;28;20308;-51
2021/12/14 07:46:29;;;;;;;16.70;8.65;;;21.10;60.00;;;;;;5103410;28;20632;-48
2021/12/14 07:49:01;;;;;;;13.00;7.05;;;21.10;60.00;;;;;;5105153;28;20237;-47
2021/12/14 07:51:37;;;;;;;14.15;8.50;;;21.00;59.90;;;;;;5102068;28;20660;-49
2021/12/14 07:54:11;;;;;;;13.88;8.15;;;21.00;59.90;;;;;;5101589;28;20308;-48
2021/12/14 07:56:46;;;;;;;14.63;7.72;;;21.00;59.90;;;;;;5102750;28;20724;-46
2021/12/14 07:59:27;;;;;;;12.35;7.60;;;21.10;59.90;;;;;;5101529;27;20304;-47
2021/12/14 08:02:13;;;;;;;11.25;7.18;;;21.00;59.90;;;;;;5104056;28;20346;-47
2021/12/14 08:04:48;;;;;;;13.35;6.70;;;21.00;59.90;;;;;;5101890;28;20724;-47
2021/12/14 08:07:34;;;;;;;11.40;6.97;;;21.00;59.90;;;;;;5102538;28;20292;-47
2021/12/14 08:10:09;;;;;;;9.85;6.15;;;21.00;59.90;;;;;;5101756;28;20229;-46
2021/12/14 08:12:44;;;;;;;12.38;6.85;;;21.00;59.90;;;;;;5098444;28;20269;-49
2021/12/14 08:15:25;;;;;;;10.13;6.00;;;21.00;59.80;;;;;;5103512;28;20220;-47
2021/12/14 08:18:06;;;;;;;12.82;6.80;;;21.00;59.90;;;;;;5102063;28;20308;-47
2021/12/14 08:20:39;;;;;;;11.90;6.32;;;21.00;59.90;;;;;;5100509;28;20720;-47
2021/12/14 08:23:23;;;;;;;6.82;5.50;;;21.00;59.90;;;;;;5102301;28;20303;-49
2021/12/14 08:25:56;;;;;;;11.25;6.00;;;20.90;59.80;;;;;;5102556;28;20748;-46
2021/12/14 08:28:26;;;;;;;11.10;6.30;;;21.00;59.80;;;;;;5102489;28;20675;-47
2021/12/14 08:31:00;;;;;;;10.45;5.80;;;21.00;59.90;;;;;;5100812;28;20748;-52
2021/12/14 08:33:32;;;;;;;9.43;6.00;;;20.90;59.90;;;;;;5101764;28;20209;-51
2021/12/14 08:36:06;;;;;;;8.77;5.65;;;20.90;60.00;;;;;;5101878;28;20713;-51
2021/12/14 08:38:39;;;;;;;9.25;5.45;;;20.90;59.90;;;;;;5101490;28;20296;-54
2021/12/14 08:41:16;;;;;;;10.43;5.57;;;20.90;60.10;;;;;;5099538;28;20225;-50
2021/12/14 08:43:50;;;;;;;8.10;5.03;;;20.90;60.00;;;;;;5093578;28;20557;-50
2021/12/14 08:46:26;;;;;;;6.95;4.75;;;20.90;60.10;;;;;;5088670;28;20210;-54
2021/12/14 08:48:59;;;;;;;9.60;5.35;;;20.90;60.10;;;;;;5087969;28;20220;-54
2021/12/14 08:51:35;;;;;;;9.60;4.95;;;20.90;60.10;;;;;;5072686;22;20327;-47
2021/12/14 08:54:11;;;;;;;8.43;5.13;;;20.90;60.10;;;;;;5027587;28;20592;-55
2021/12/14 08:56:45;;;;;;;7.72;4.90;;;20.90;60.10;;;;;;5027333;28;20298;-52
2021/12/14 08:59:16;;;;;;;7.00;4.63;;;20.90;60.10;;;;;;5028199;28;20254;-50
2021/12/14 09:01:48;;;;;;;6.47;4.57;;;20.90;60.10;;;;;;5029256;28;20287;-51
2021/12/14 09:04:21;;;;;;;7.20;4.57;;;20.80;60.00;;;;;;5029096;28;20250;-54
2021/12/14 09:06:57;;;;;;;7.10;4.50;;;20.80;60.00;;;;;;5029061;28;20239;-50
2021/12/14 09:09:29;;;;;;;7.70;4.68;;;20.80;60.00;;;;;;5029871;28;20640;-49
2021/12/14 09:12:04;;;;;;;7.18;4.55;;;20.80;60.00;;;;;;5028751;28;20204;-46
2021/12/14 09:14:35;;;;;;;6.28;4.25;;;20.80;60.00;;;;;;5029425;28;20357;-48
2021/12/14 09:17:09;;;;;;;6.20;4.07;;;20.80;60.00;;;;;;5030381;28;20204;-52
2021/12/14 09:19:42;;;;;;;7.40;4.65;;;20.80;60.00;;;;;;5028532;28;20280;-50
2021/12/14 09:22:16;;;;;;;6.07;3.95;;;20.80;60.00;;;;;;5028760;28;20654;-50
2021/12/14 09:24:49;;;;;;;6.22;3.85;;;20.80;60.00;;;;;;5029205;28;20698;-46
2021/12/14 09:27:23;;;;;;;7.15;4.10;;;20.80;60.10;;;;;;5028844;28;20257;-45
2021/12/14 09:29:55;;;;;;;6.75;4.13;;;20.80;60.10;;;;;;5029082;28;20278;-51
2021/12/14 09:32:28;;;;;;;5.72;3.90;;;20.80;60.00;;;;;;5029346;28;20275;-46
2021/12/14 09:35:00;;;;;;;7.10;3.90;;;20.80;60.10;;;;;;5028290;28;20706;-49
2021/12/14 09:37:32;;;;;;;6.10;4.10;;;20.70;60.00;;;;;;5029643;28;20283;-53
2021/12/14 09:40:13;;;;;;;5.57;3.30;;;20.70;60.10;;;;;;5029376;28;20201;-51
2021/12/14 09:42:44;;;;;;;5.43;3.20;;;20.70;60.10;;;;;;5029472;28;20271;-47
2021/12/14 09:45:22;;;;;;;4.13;3.25;;;20.70;60.00;;;;;;5028514;28;20295;-49
2021/12/14 09:47:53;;;;;;;5.63;3.35;;;20.70;60.10;;;;;;5027358;28;20650;-46
2021/12/14 09:50:27;;;;;;;4.55;2.97;;;20.70;60.10;;;;;;5028379;28;20279;-46
2021/12/14 09:53:00;;;;;;;6.43;3.40;;;20.70;60.10;;;;;;5028069;28;20280;-46
2021/12/14 09:55:34;;;;;;;5.65;3.17;;;20.70;60.10;;;;;;5027835;28;20588;-48
2021/12/14 09:58:10;;;;;;;3.90;3.03;;;20.70;60.20;;;;;;5027782;28;20309;-46
2021/12/14 10:00:44;;;;;;;4.68;2.92;;;20.70;60.10;;;;;;5027362;28;20279;-53
2021/12/14 10:03:15;;;;;;;4.28;2.97;;;20.70;60.10;;;;;;5026683;28;20262;-46
2021/12/14 10:05:48;;;;;;;4.13;2.95;;;20.70;60.20;;;;;;5027612;28;20299;-53
2021/12/14 10:08:22;;;;;;;4.55;3.15;;;20.60;60.10;;;;;;5027641;28;20319;-54
2021/12/14 10:11:02;;;;;;;4.88;3.13;;;20.60;60.10;;;;;;5027825;28;20231;-48
2021/12/14 10:13:33;;;;;;;3.40;2.78;;;20.60;60.10;;;;;;5029172;28;20207;-51
2021/12/14 10:16:06;;;;;;;3.20;2.60;;;20.60;60.10;;;;;;5028704;28;20310;-53
2021/12/14 10:18:40;;;;;;;3.03;2.72;;;20.60;60.10;;;;;;5028033;28;20302;-54
2021/12/14 10:21:13;;;;;;;3.28;2.40;;;20.60;60.20;;;;;;5026243;28;20566;-48
2021/12/14 10:23:48;;;;;;;4.05;2.70;;;20.60;60.20;;;;;;5028225;28;20275;-45
2021/12/14 10:26:23;;;;;;;4.00;2.90;;;20.60;60.20;;;;;;5027446;28;20210;-54
2021/12/14 10:28:58;;;;;;;5.45;2.88;;;20.60;60.20;;;;;;5027103;28;20311;-52
2021/12/14 10:31:32;;;;;;;5.10;2.70;;;20.60;60.20;;;;;;5026426;28;20208;-58
2021/12/14 10:34:05;;;;;;;4.25;2.78;;;20.60;60.20;;;;;;5027768;28;20207;-51
2021/12/14 10:36:41;;;;;;;4.00;2.55;;;20.60;60.20;;;;;;5028815;28;20235;-50
2021/12/14 10:39:34;;;;;;;4.30;2.30;;;20.60;60.20;;;;;;5027757;28;20220;-50
2021/12/14 10:44:58;;;;;;;3.70;2.08;;;20.50;60.20;;;;;;5025455;28;20293;-45
2021/12/14 10:47:32;;;;;;;3.38;2.45;;;20.50;60.20;;;;;;5032280;28;20202;-44
2021/12/14 10:50:07;;;;;;;3.75;2.08;;;20.50;60.20;;;;;;5031673;28;20639;-52
2021/12/14 10:52:42;;;;;;;2.80;2.20;;;20.50;60.30;;;;;;5028691;28;20425;-48
2021/12/14 10:55:17;;;;;;;3.63;2.30;;;20.50;60.20;;;;;;5027022;28;20222;-47
2021/12/14 10:57:50;;;;;;;4.60;2.30;;;20.50;60.20;;;;;;5024765;28;20632;-48
2021/12/14 11:00:30;;;;;;;5.07;2.40;;;20.50;60.20;;;;;;5027938;28;20283;-48
2021/12/14 11:03:04;;;;;;;2.65;2.05;;;20.50;60.30;;;;;;5026865;28;20196;-53
2021/12/14 11:05:36;;;;;;;3.33;2.35;;;20.50;60.30;;;;;;5025058;28;20553;-52
2021/12/14 11:08:10;;;;;;;3.30;2.35;;;20.50;60.30;;;;;;5026187;28;20231;-48
2021/12/14 11:10:42;;;;;;;4.70;2.50;;;20.40;60.20;;;;;;5022353;28;20356;-51
2021/12/14 11:13:15;;;;;;;4.13;2.15;;;20.50;60.30;;;;;;5028188;28;20290;-49
2021/12/14 11:15:48;;;;;;;3.40;2.38;;;20.40;60.20;;;;;;5025986;28;20307;-49
2021/12/14 11:18:21;;;;;;;3.45;2.08;;;20.50;60.40;;;;;;5026535;28;20208;-46
2021/12/14 11:20:54;;;;;;;3.53;1.90;;;20.40;60.20;;;;;;5028397;28;20290;-47
2021/12/14 11:23:26;;;;;;;3.72;2.22;;;20.40;60.20;;;;;;5037943;28;20286;-45
2021/12/14 11:26:01;;;;;;;2.78;2.10;;;20.40;60.20;;;;;;5037561;28;21549;-48
2021/12/14 11:28:36;;;;;;;3.00;2.10;;;20.40;60.20;;;;;;5040539;28;20315;-50
2021/12/14 11:31:11;;;;;;;2.83;2.00;;;20.40;60.20;;;;;;5029609;28;20286;-45
2021/12/14 11:33:45;;;;;;;2.30;1.85;;;20.40;60.30;;;;;;5029892;28;20661;-51
2021/12/14 11:36:19;;;;;;;4.22;2.20;;;20.40;60.20;;;;;;5028621;28;20226;-48
2021/12/14 11:38:53;;;;;;;4.05;2.00;;;20.40;60.20;;;;;;5028472;28;20266;-51
2021/12/14 11:41:32;;;;;;;2.55;1.80;;;20.30;60.20;;;;;;5046325;28;20191;-53
2021/12/14 11:44:09;;;;;;;3.75;1.70;;;20.30;60.20;;;;;;5029100;28;20283;-45
2021/12/14 11:47:04;;;;;;;2.83;2.00;;;20.30;60.20;;;;;;5026006;28;20284;-49
2021/12/14 11:49:51;;;;;;;3.90;2.00;;;20.30;60.30;;;;;;5029661;28;20285;-50
2021/12/14 11:52:42;;;;;;;2.50;1.77;;;20.30;60.20;;;;;;5029654;22;20319;-40
2021/12/14 11:55:31;;;;;;;3.83;1.85;;;20.30;60.30;;;;;;4995622;28;20239;-42
2021/12/14 11:58:14;;;;;;;2.97;1.85;;;20.30;60.20;;;;;;5009447;28;20803;-43
2021/12/14 12:00:50;;;;;;;3.20;2.10;;;20.30;60.20;;;;;;5008694;28;20196;-43
2021/12/14 12:03:43;;;;;;;2.80;1.60;;;20.30;60.20;;;;;;5013195;28;20287;-46
2021/12/14 12:06:35;;;;;;;2.25;1.80;;;20.30;60.20;;;;;;5017023;28;20240;-41
2021/12/14 12:11:58;;;;;;;2.88;1.70;;;20.30;60.30;;;;;;5000260;28;20231;-42
2021/12/14 12:14:32;;;;;;;1.75;1.52;;;20.30;60.20;;;;;;4993408;28;20314;-44
2021/12/14 12:17:18;;;;;;;4.05;1.90;;;20.20;60.20;;;;;;5006972;28;20205;-44
2021/12/14 12:20:03;;;;;;;3.13;1.60;;;20.20;60.30;;;;;;5003139;28;20292;-43
2021/12/14 12:22:37;;;;;;;1.98;1.60;;;20.20;60.30;;;;;;5012515;28;20198;-45
2021/12/14 12:25:11;;;;;;;2.75;1.55;;;20.20;60.20;;;;;;5024761;28;20283;-39
2021/12/14 12:27:46;;;;;;;2.75;1.40;;;20.20;60.30;;;;;;5016177;28;20667;-48
2021/12/14 12:30:33;;;;;;;2.53;1.70;;;20.20;60.30;;;;;;5014002;28;20206;-48
2021/12/14 12:33:12;;;;;;;1.88;1.58;;;20.20;60.40;;;;;;5011289;28;20225;-48
2021/12/14 12:35:49;;;;;;;3.53;1.17;;;20.20;60.30;;;;;;4998648;28;20303;-41
2021/12/14 12:38:43;;;;;;;1.85;1.50;;;20.20;60.40;;;;;;5012061;28;20227;-48
2021/12/14 12:41:25;;;;;;;2.55;1.70;;;20.20;60.40;;;;;;5020899;28;20296;-46
2021/12/14 12:44:00;;;;;;;3.10;1.65;;;20.20;60.40;;;;;;5010579;28;20588;-40
2021/12/14 12:46:33;;;;;;;2.42;1.55;;;20.20;60.40;;;;;;5011091;28;20220;-43
2021/12/14 12:49:15;;;;;;;2.53;1.63;;;20.10;60.20;;;;;;5011308;28;20311;-55
2021/12/14 12:52:10;;;;;;;2.80;1.48;;;20.20;60.40;;;;;;5012007;28;20279;-53
2021/12/14 12:54:56;;;;;;;2.20;1.50;;;20.20;60.40;;;;;;5024273;28;20291;-42
2021/12/14 12:57:47;;;;;;;1.95;1.35;;;20.10;60.20;;;;;;5005743;28;20684;-44
2021/12/14 13:00:28;;;;;;;2.10;1.48;;;20.20;60.30;;;;;;5004443;28;20293;-39
2021/12/14 13:03:02;;;;;;;2.83;1.70;;;20.10;60.20;;;;;;5000592;28;20292;-43
2021/12/14 13:05:39;;;;;;;2.28;1.48;;;20.10;60.20;;;;;;5011667;28;20294;-39
2021/12/14 13:08:17;;;;;;;1.50;1.25;;;20.10;60.30;;;;;;5011429;28;20307;-42
2021/12/14 13:10:51;;;;;;;2.47;1.60;;;20.10;60.30;;;;;;5018038;28;20204;-41
2021/12/14 13:13:24;;;;;;;1.48;1.35;;;20.10;60.30;;;;;;5019462;28;20228;-40
2021/12/14 13:16:08;;;;;;;1.88;1.40;;;20.10;60.30;;;;;;5026999;28;20335;-49
2021/12/14 13:18:44;;;;;;;1.65;1.40;;;20.10;60.40;;;;;;5007807;28;20232;-47
2021/12/14 13:21:27;;;;;;;2.58;1.40;;;20.10;60.40;;;;;;5001605;28;20288;-40
2021/12/14 13:24:03;;;;;;;1.30;1.20;;;20.10;60.30;;;;;;5007202;28;20276;-46
2021/12/14 13:26:37;;;;;;;1.75;1.13;;;20.10;60.30;;;;;;5010623;28;20255;-48
2021/12/14 13:29:22;;;;;;;1.77;1.35;;;20.10;60.40;;;;;;5026488;28;20307;-41
2021/12/14 13:31:56;;;;;;;2.08;1.25;;;20.10;60.40;;;;;;5010800;28;20723;-39
2021/12/14 13:34:31;;;;;;;2.35;1.20;;;20.00;60.30;;;;;;5018454;28;20230;-41
2021/12/14 13:37:04;;;;;;;2.35;1.30;;;20.00;60.30;;;;;;5019112;28;20310;-52
2021/12/14 13:39:35;;;;;;;1.95;1.13;;;20.00;60.40;;;;;;5025802;28;20326;-51
2021/12/14 13:42:30;;;;;;;1.83;1.30;;;20.00;60.40;;;;;;5011060;28;20280;-43
2021/12/14 13:45:00;;;;;;;2.10;1.10;;;20.00;60.30;;;;;;5011064;28;20196;-53
2021/12/14 13:47:32;;;;;;;1.25;1.13;;;20.00;60.30;;;;;;5012909;28;20399;-52
2021/12/14 13:50:13;;;;;;;1.63;1.20;;;20.00;60.30;;;;;;5012517;28;20252;-60
2021/12/14 13:52:46;;;;;;;2.15;1.27;;;20.00;60.30;;;;;;5011132;28;20292;-40
2021/12/14 13:55:30;;;;;;;1.95;1.20;;;20.00;60.30;;;;;;5020685;28;20695;-42
2021/12/14 13:58:05;;;;;;;1.75;1.30;;;20.00;60.30;;;;;;5009662;28;20254;-49